sensor_id;sensor_type;location;lat;lon;timestamp;P1;durP1;ratioP1;P2;durP2;ratioP2
63782;SDS011;49925;52.522;5.732;2023-06-14T00:02:05;9.35;;;3.53;;
63782;SDS011;49925;52.522;5.732;2023-06-14T00:04:35;14.65;;;3.10;;
63782;SDS011;49925;52.522;5.732;2023-06-14T00:07:04;16.15;;;3.50;;
63782;SDS011;49925;52.522;5.732;2023-06-14T00:09:37;9.32;;;3.67;;
63782;SDS011;49925;52.522;5.732;2023-06-14T00:12:07;16.65;;;3.72;;
63782;SDS011;49925;52.522;5.732;2023-06-14T00:14:38;11.82;;;3.53;;
63782;SDS011;49925;52.522;5.732;2023-06-14T00:17:06;8.00;;;3.17;;
63782;SDS011;49925;52.522;5.732;2023-06-14T00:19:33;14.57;;;3.33;;
63782;SDS011;49925;52.522;5.732;2023-06-14T00:22:02;12.25;;;3.60;;
63782;SDS011;49925;52.522;5.732;2023-06-14T00:24:30;12.18;;;3.35;;
63782;SDS011;49925;52.522;5.732;2023-06-14T00:26:57;9.75;;;3.67;;
63782;SDS011;49925;52.522;5.732;2023-06-14T00:29:24;10.32;;;3.45;;
63782;SDS011;49925;52.522;5.732;2023-06-14T00:31:52;13.60;;;3.50;;
63782;SDS011;49925;52.522;5.732;2023-06-14T00:34:19;11.48;;;3.58;;
63782;SDS011;49925;52.522;5.732;2023-06-14T00:36:46;9.00;;;3.40;;
63782;SDS011;49925;52.522;5.732;2023-06-14T00:39:14;10.90;;;3.58;;
63782;SDS011;49925;52.522;5.732;2023-06-14T00:41:41;9.25;;;3.30;;
63782;SDS011;49925;52.522;5.732;2023-06-14T00:44:09;13.60;;;3.58;;
63782;SDS011;49925;52.522;5.732;2023-06-14T00:46:36;13.85;;;3.30;;
63782;SDS011;49925;52.522;5.732;2023-06-14T00:49:03;6.47;;;3.03;;
63782;SDS011;49925;52.522;5.732;2023-06-14T00:51:31;8.85;;;3.10;;
63782;SDS011;49925;52.522;5.732;2023-06-14T00:53:58;8.30;;;3.17;;
63782;SDS011;49925;52.522;5.732;2023-06-14T00:56:26;9.05;;;3.65;;
63782;SDS011;49925;52.522;5.732;2023-06-14T00:58:54;7.30;;;3.03;;
63782;SDS011;49925;52.522;5.732;2023-06-14T01:01:22;13.20;;;3.47;;
63782;SDS011;49925;52.522;5.732;2023-06-14T01:03:50;11.38;;;3.38;;
63782;SDS011;49925;52.522;5.732;2023-06-14T01:06:19;15.68;;;3.35;;
63782;SDS011;49925;52.522;5.732;2023-06-14T01:12:07;12.20;;;3.53;;
63782;SDS011;49925;52.522;5.732;2023-06-14T01:15:00;7.07;;;3.33;;
63782;SDS011;49925;52.522;5.732;2023-06-14T01:17:28;11.18;;;3.38;;
63782;SDS011;49925;52.522;5.732;2023-06-14T01:19:58;5.63;;;3.20;;
63782;SDS011;49925;52.522;5.732;2023-06-14T01:22:29;5.70;;;3.20;;
63782;SDS011;49925;52.522;5.732;2023-06-14T01:24:56;7.30;;;3.42;;
63782;SDS011;49925;52.522;5.732;2023-06-14T01:27:24;18.23;;;3.58;;
63782;SDS011;49925;52.522;5.732;2023-06-14T01:29:56;10.18;;;3.38;;
63782;SDS011;49925;52.522;5.732;2023-06-14T01:32:24;6.35;;;3.35;;
63782;SDS011;49925;52.522;5.732;2023-06-14T01:34:53;10.52;;;3.42;;
63782;SDS011;49925;52.522;5.732;2023-06-14T01:37:21;14.18;;;3.85;;
63782;SDS011;49925;52.522;5.732;2023-06-14T01:39:48;10.50;;;3.60;;
63782;SDS011;49925;52.522;5.732;2023-06-14T01:42:18;11.82;;;3.50;;
63782;SDS011;49925;52.522;5.732;2023-06-14T01:44:46;11.18;;;3.40;;
63782;SDS011;49925;52.522;5.732;2023-06-14T01:47:14;5.35;;;3.40;;
63782;SDS011;49925;52.522;5.732;2023-06-14T01:49:41;7.78;;;3.38;;
63782;SDS011;49925;52.522;5.732;2023-06-14T01:52:09;8.05;;;3.40;;
63782;SDS011;49925;52.522;5.732;2023-06-14T01:54:36;11.20;;;3.33;;
63782;SDS011;49925;52.522;5.732;2023-06-14T01:57:11;9.35;;;3.50;;
63782;SDS011;49925;52.522;5.732;2023-06-14T01:59:39;16.73;;;3.80;;
63782;SDS011;49925;52.522;5.732;2023-06-14T02:02:06;6.45;;;3.45;;
63782;SDS011;49925;52.522;5.732;2023-06-14T02:04:33;10.70;;;4.05;;
63782;SDS011;49925;52.522;5.732;2023-06-14T02:07:01;10.25;;;3.25;;
63782;SDS011;49925;52.522;5.732;2023-06-14T02:09:28;7.03;;;3.10;;
63782;SDS011;49925;52.522;5.732;2023-06-14T02:11:55;7.00;;;3.22;;
63782;SDS011;49925;52.522;5.732;2023-06-14T02:14:23;7.07;;;3.35;;
63782;SDS011;49925;52.522;5.732;2023-06-14T02:16:51;8.98;;;3.20;;
63782;SDS011;49925;52.522;5.732;2023-06-14T02:19:19;11.18;;;3.25;;
63782;SDS011;49925;52.522;5.732;2023-06-14T02:21:47;14.90;;;3.50;;
63782;SDS011;49925;52.522;5.732;2023-06-14T02:24:17;7.13;;;3.50;;
63782;SDS011;49925;52.522;5.732;2023-06-14T02:26:45;9.27;;;3.47;;
63782;SDS011;49925;52.522;5.732;2023-06-14T02:29:12;7.88;;;3.85;;
63782;SDS011;49925;52.522;5.732;2023-06-14T02:31:41;11.13;;;3.60;;
63782;SDS011;49925;52.522;5.732;2023-06-14T02:34:08;11.27;;;3.60;;
63782;SDS011;49925;52.522;5.732;2023-06-14T02:36:36;23.83;;;4.30;;
63782;SDS011;49925;52.522;5.732;2023-06-14T02:39:11;13.10;;;3.50;;
63782;SDS011;49925;52.522;5.732;2023-06-14T02:41:38;6.80;;;3.50;;
63782;SDS011;49925;52.522;5.732;2023-06-14T02:44:06;17.65;;;3.67;;
63782;SDS011;49925;52.522;5.732;2023-06-14T02:46:33;9.70;;;3.67;;
63782;SDS011;49925;52.522;5.732;2023-06-14T02:49:00;12.40;;;3.80;;
63782;SDS011;49925;52.522;5.732;2023-06-14T02:51:28;9.52;;;3.63;;
63782;SDS011;49925;52.522;5.732;2023-06-14T02:53:55;14.02;;;3.63;;
63782;SDS011;49925;52.522;5.732;2023-06-14T02:56:22;8.40;;;3.50;;
63782;SDS011;49925;52.522;5.732;2023-06-14T02:58:50;9.65;;;3.47;;
63782;SDS011;49925;52.522;5.732;2023-06-14T03:01:17;7.95;;;3.28;;
63782;SDS011;49925;52.522;5.732;2023-06-14T03:03:46;10.20;;;3.58;;
63782;SDS011;49925;52.522;5.732;2023-06-14T03:06:14;11.52;;;3.33;;
63782;SDS011;49925;52.522;5.732;2023-06-14T03:08:43;10.02;;;3.63;;
63782;SDS011;49925;52.522;5.732;2023-06-14T03:11:10;14.27;;;3.47;;
63782;SDS011;49925;52.522;5.732;2023-06-14T03:13:37;9.63;;;3.40;;
63782;SDS011;49925;52.522;5.732;2023-06-14T03:16:07;10.43;;;3.33;;
63782;SDS011;49925;52.522;5.732;2023-06-14T03:18:35;11.05;;;3.67;;
63782;SDS011;49925;52.522;5.732;2023-06-14T03:21:03;8.30;;;3.40;;
63782;SDS011;49925;52.522;5.732;2023-06-14T03:23:30;7.95;;;3.33;;
63782;SDS011;49925;52.522;5.732;2023-06-14T03:25:57;12.68;;;3.55;;
63782;SDS011;49925;52.522;5.732;2023-06-14T03:28:24;12.43;;;3.67;;
63782;SDS011;49925;52.522;5.732;2023-06-14T03:30:52;13.90;;;3.72;;
63782;SDS011;49925;52.522;5.732;2023-06-14T03:33:19;17.10;;;3.38;;
63782;SDS011;49925;52.522;5.732;2023-06-14T03:35:47;13.65;;;3.72;;
63782;SDS011;49925;52.522;5.732;2023-06-14T03:38:17;15.80;;;3.80;;
63782;SDS011;49925;52.522;5.732;2023-06-14T03:40:45;9.90;;;3.80;;
63782;SDS011;49925;52.522;5.732;2023-06-14T03:43:13;10.02;;;3.15;;
63782;SDS011;49925;52.522;5.732;2023-06-14T03:45:40;15.70;;;3.42;;
63782;SDS011;49925;52.522;5.732;2023-06-14T03:48:08;7.35;;;3.13;;
63782;SDS011;49925;52.522;5.732;2023-06-14T03:50:36;11.85;;;3.33;;
63782;SDS011;49925;52.522;5.732;2023-06-14T03:53:06;11.20;;;3.60;;
63782;SDS011;49925;52.522;5.732;2023-06-14T03:55:34;7.93;;;3.42;;
63782;SDS011;49925;52.522;5.732;2023-06-14T03:58:04;10.65;;;3.53;;
63782;SDS011;49925;52.522;5.732;2023-06-14T04:00:31;17.67;;;3.97;;
63782;SDS011;49925;52.522;5.732;2023-06-14T04:02:58;11.05;;;3.85;;
63782;SDS011;49925;52.522;5.732;2023-06-14T04:05:26;10.13;;;3.55;;
63782;SDS011;49925;52.522;5.732;2023-06-14T04:07:53;9.15;;;3.60;;
63782;SDS011;49925;52.522;5.732;2023-06-14T04:10:22;13.10;;;3.75;;
63782;SDS011;49925;52.522;5.732;2023-06-14T04:12:52;12.98;;;3.28;;
63782;SDS011;49925;52.522;5.732;2023-06-14T04:15:19;10.48;;;3.70;;
63782;SDS011;49925;52.522;5.732;2023-06-14T04:17:47;8.10;;;3.83;;
63782;SDS011;49925;52.522;5.732;2023-06-14T04:20:15;14.40;;;3.78;;
63782;SDS011;49925;52.522;5.732;2023-06-14T04:22:43;8.63;;;3.47;;
63782;SDS011;49925;52.522;5.732;2023-06-14T04:25:11;8.20;;;3.60;;
63782;SDS011;49925;52.522;5.732;2023-06-14T04:27:38;7.38;;;3.40;;
63782;SDS011;49925;52.522;5.732;2023-06-14T04:30:06;7.03;;;3.10;;
63782;SDS011;49925;52.522;5.732;2023-06-14T04:32:34;8.57;;;3.25;;
63782;SDS011;49925;52.522;5.732;2023-06-14T04:35:06;8.00;;;3.35;;
63782;SDS011;49925;52.522;5.732;2023-06-14T04:37:34;7.47;;;3.60;;
63782;SDS011;49925;52.522;5.732;2023-06-14T04:40:06;18.15;;;3.88;;
63782;SDS011;49925;52.522;5.732;2023-06-14T04:42:37;10.23;;;3.80;;
63782;SDS011;49925;52.522;5.732;2023-06-14T04:45:07;8.25;;;3.33;;
63782;SDS011;49925;52.522;5.732;2023-06-14T04:47:35;15.45;;;3.40;;
63782;SDS011;49925;52.522;5.732;2023-06-14T04:50:04;11.30;;;3.03;;
63782;SDS011;49925;52.522;5.732;2023-06-14T04:52:31;17.02;;;3.65;;
63782;SDS011;49925;52.522;5.732;2023-06-14T04:54:59;9.05;;;3.33;;
63782;SDS011;49925;52.522;5.732;2023-06-14T04:57:26;7.55;;;3.40;;
63782;SDS011;49925;52.522;5.732;2023-06-14T04:59:54;14.73;;;3.47;;
63782;SDS011;49925;52.522;5.732;2023-06-14T05:02:22;9.75;;;3.60;;
63782;SDS011;49925;52.522;5.732;2023-06-14T05:04:50;9.85;;;3.65;;
63782;SDS011;49925;52.522;5.732;2023-06-14T05:07:18;5.53;;;3.35;;
63782;SDS011;49925;52.522;5.732;2023-06-14T05:09:46;13.60;;;3.60;;
63782;SDS011;49925;52.522;5.732;2023-06-14T05:12:13;11.93;;;3.63;;
63782;SDS011;49925;52.522;5.732;2023-06-14T05:14:45;10.30;;;3.67;;
63782;SDS011;49925;52.522;5.732;2023-06-14T05:17:12;11.93;;;3.83;;
63782;SDS011;49925;52.522;5.732;2023-06-14T05:19:39;10.98;;;3.97;;
63782;SDS011;49925;52.522;5.732;2023-06-14T05:22:07;13.90;;;3.80;;
63782;SDS011;49925;52.522;5.732;2023-06-14T05:24:34;12.00;;;4.00;;
63782;SDS011;49925;52.522;5.732;2023-06-14T05:27:01;9.05;;;3.85;;
63782;SDS011;49925;52.522;5.732;2023-06-14T05:29:29;9.82;;;4.18;;
63782;SDS011;49925;52.522;5.732;2023-06-14T05:31:56;24.27;;;3.65;;
63782;SDS011;49925;52.522;5.732;2023-06-14T05:34:23;9.48;;;4.10;;
63782;SDS011;49925;52.522;5.732;2023-06-14T05:36:50;7.13;;;3.92;;
63782;SDS011;49925;52.522;5.732;2023-06-14T05:39:17;12.65;;;3.95;;
63782;SDS011;49925;52.522;5.732;2023-06-14T05:41:45;9.57;;;4.10;;
63782;SDS011;49925;52.522;5.732;2023-06-14T05:44:15;10.38;;;3.65;;
63782;SDS011;49925;52.522;5.732;2023-06-14T05:46:43;10.07;;;3.67;;
63782;SDS011;49925;52.522;5.732;2023-06-14T05:49:10;10.20;;;3.85;;
63782;SDS011;49925;52.522;5.732;2023-06-14T05:51:38;12.35;;;4.00;;
63782;SDS011;49925;52.522;5.732;2023-06-14T05:54:05;8.30;;;4.00;;
63782;SDS011;49925;52.522;5.732;2023-06-14T05:56:33;8.02;;;3.75;;
63782;SDS011;49925;52.522;5.732;2023-06-14T05:59:01;9.20;;;3.97;;
63782;SDS011;49925;52.522;5.732;2023-06-14T06:01:28;19.05;;;4.80;;
63782;SDS011;49925;52.522;5.732;2023-06-14T06:03:56;15.65;;;4.00;;
63782;SDS011;49925;52.522;5.732;2023-06-14T06:06:24;14.32;;;4.45;;
63782;SDS011;49925;52.522;5.732;2023-06-14T06:08:51;10.75;;;4.15;;
63782;SDS011;49925;52.522;5.732;2023-06-14T06:11:18;6.13;;;4.03;;
63782;SDS011;49925;52.522;5.732;2023-06-14T06:13:46;14.32;;;4.32;;
63782;SDS011;49925;52.522;5.732;2023-06-14T06:16:14;16.60;;;4.03;;
63782;SDS011;49925;52.522;5.732;2023-06-14T06:18:41;10.25;;;4.22;;
63782;SDS011;49925;52.522;5.732;2023-06-14T06:21:10;15.32;;;4.10;;
63782;SDS011;49925;52.522;5.732;2023-06-14T06:23:38;13.93;;;4.03;;
63782;SDS011;49925;52.522;5.732;2023-06-14T06:26:05;15.45;;;4.43;;
63782;SDS011;49925;52.522;5.732;2023-06-14T06:28:32;12.25;;;4.00;;
63782;SDS011;49925;52.522;5.732;2023-06-14T06:30:59;8.80;;;4.20;;
63782;SDS011;49925;52.522;5.732;2023-06-14T06:33:30;16.00;;;3.85;;
63782;SDS011;49925;52.522;5.732;2023-06-14T06:35:57;11.27;;;4.07;;
63782;SDS011;49925;52.522;5.732;2023-06-14T06:38:24;9.15;;;3.60;;
63782;SDS011;49925;52.522;5.732;2023-06-14T06:40:51;10.15;;;4.22;;
63782;SDS011;49925;52.522;5.732;2023-06-14T06:43:20;10.80;;;3.75;;
63782;SDS011;49925;52.522;5.732;2023-06-14T06:45:48;12.98;;;4.13;;
63782;SDS011;49925;52.522;5.732;2023-06-14T06:48:15;9.98;;;3.63;;
63782;SDS011;49925;52.522;5.732;2023-06-14T06:50:43;13.23;;;3.85;;
63782;SDS011;49925;52.522;5.732;2023-06-14T06:53:10;12.32;;;3.78;;
63782;SDS011;49925;52.522;5.732;2023-06-14T06:55:41;12.88;;;3.95;;
63782;SDS011;49925;52.522;5.732;2023-06-14T06:58:08;12.02;;;3.75;;
63782;SDS011;49925;52.522;5.732;2023-06-14T07:00:36;8.23;;;3.70;;
63782;SDS011;49925;52.522;5.732;2023-06-14T07:03:03;11.25;;;3.60;;
63782;SDS011;49925;52.522;5.732;2023-06-14T07:05:31;7.50;;;3.63;;
63782;SDS011;49925;52.522;5.732;2023-06-14T07:07:58;9.07;;;3.08;;
63782;SDS011;49925;52.522;5.732;2023-06-14T07:10:26;6.65;;;3.38;;
63782;SDS011;49925;52.522;5.732;2023-06-14T07:12:54;6.80;;;3.53;;
63782;SDS011;49925;52.522;5.732;2023-06-14T07:15:21;7.10;;;3.50;;
63782;SDS011;49925;52.522;5.732;2023-06-14T07:17:48;13.10;;;3.38;;
63782;SDS011;49925;52.522;5.732;2023-06-14T07:20:17;7.78;;;3.67;;
63782;SDS011;49925;52.522;5.732;2023-06-14T07:22:44;6.82;;;3.30;;
63782;SDS011;49925;52.522;5.732;2023-06-14T07:25:12;11.65;;;3.22;;
63782;SDS011;49925;52.522;5.732;2023-06-14T07:27:42;10.80;;;3.08;;
63782;SDS011;49925;52.522;5.732;2023-06-14T07:30:12;7.60;;;3.08;;
63782;SDS011;49925;52.522;5.732;2023-06-14T07:32:39;11.07;;;3.28;;
63782;SDS011;49925;52.522;5.732;2023-06-14T07:35:06;9.70;;;2.90;;
63782;SDS011;49925;52.522;5.732;2023-06-14T07:37:34;17.98;;;3.08;;
63782;SDS011;49925;52.522;5.732;2023-06-14T07:40:02;4.40;;;2.85;;
63782;SDS011;49925;52.522;5.732;2023-06-14T07:42:34;12.55;;;2.75;;
63782;SDS011;49925;52.522;5.732;2023-06-14T07:45:02;17.25;;;2.90;;
63782;SDS011;49925;52.522;5.732;2023-06-14T07:47:31;5.70;;;2.60;;
63782;SDS011;49925;52.522;5.732;2023-06-14T07:49:59;6.80;;;2.70;;
63782;SDS011;49925;52.522;5.732;2023-06-14T07:52:27;6.80;;;2.92;;
63782;SDS011;49925;52.522;5.732;2023-06-14T07:54:54;6.03;;;2.90;;
63782;SDS011;49925;52.522;5.732;2023-06-14T07:57:21;9.38;;;2.75;;
63782;SDS011;49925;52.522;5.732;2023-06-14T07:59:49;6.55;;;2.90;;
63782;SDS011;49925;52.522;5.732;2023-06-14T08:02:16;6.95;;;2.90;;
63782;SDS011;49925;52.522;5.732;2023-06-14T08:04:44;7.15;;;3.00;;
63782;SDS011;49925;52.522;5.732;2023-06-14T08:07:12;5.60;;;2.85;;
63782;SDS011;49925;52.522;5.732;2023-06-14T08:09:39;6.93;;;2.80;;
63782;SDS011;49925;52.522;5.732;2023-06-14T08:12:06;8.63;;;2.92;;
63782;SDS011;49925;52.522;5.732;2023-06-14T08:14:36;9.25;;;2.92;;
63782;SDS011;49925;52.522;5.732;2023-06-14T08:17:03;6.30;;;2.78;;
63782;SDS011;49925;52.522;5.732;2023-06-14T08:19:31;9.27;;;3.00;;
63782;SDS011;49925;52.522;5.732;2023-06-14T08:21:58;10.65;;;3.03;;
63782;SDS011;49925;52.522;5.732;2023-06-14T08:24:26;4.18;;;2.60;;
63782;SDS011;49925;52.522;5.732;2023-06-14T08:26:53;13.88;;;2.95;;
63782;SDS011;49925;52.522;5.732;2023-06-14T08:29:21;12.55;;;3.30;;
63782;SDS011;49925;52.522;5.732;2023-06-14T08:31:48;6.47;;;2.83;;
63782;SDS011;49925;52.522;5.732;2023-06-14T08:34:15;10.02;;;2.90;;
63782;SDS011;49925;52.522;5.732;2023-06-14T08:36:43;4.97;;;2.50;;
63782;SDS011;49925;52.522;5.732;2023-06-14T08:39:10;5.75;;;2.80;;
63782;SDS011;49925;52.522;5.732;2023-06-14T08:41:37;8.48;;;2.85;;
63782;SDS011;49925;52.522;5.732;2023-06-14T08:44:05;7.32;;;2.88;;
63782;SDS011;49925;52.522;5.732;2023-06-14T08:46:33;8.27;;;2.80;;
63782;SDS011;49925;52.522;5.732;2023-06-14T08:49:01;12.27;;;3.00;;
63782;SDS011;49925;52.522;5.732;2023-06-14T08:51:30;5.05;;;3.00;;
63782;SDS011;49925;52.522;5.732;2023-06-14T08:54:00;7.32;;;3.08;;
63782;SDS011;49925;52.522;5.732;2023-06-14T08:56:28;9.20;;;2.88;;
63782;SDS011;49925;52.522;5.732;2023-06-14T08:58:56;10.55;;;3.28;;
63782;SDS011;49925;52.522;5.732;2023-06-14T09:01:36;6.68;;;2.88;;
63782;SDS011;49925;52.522;5.732;2023-06-14T09:04:04;8.27;;;3.42;;
63782;SDS011;49925;52.522;5.732;2023-06-14T09:06:31;11.45;;;3.38;;
63782;SDS011;49925;52.522;5.732;2023-06-14T09:08:59;9.77;;;3.03;;
63782;SDS011;49925;52.522;5.732;2023-06-14T09:11:27;6.43;;;3.00;;
63782;SDS011;49925;52.522;5.732;2023-06-14T09:13:54;10.10;;;3.05;;
63782;SDS011;49925;52.522;5.732;2023-06-14T09:16:22;9.65;;;2.95;;
63782;SDS011;49925;52.522;5.732;2023-06-14T09:18:49;7.38;;;2.78;;
63782;SDS011;49925;52.522;5.732;2023-06-14T09:21:16;7.32;;;3.03;;
63782;SDS011;49925;52.522;5.732;2023-06-14T09:23:45;9.65;;;2.92;;
63782;SDS011;49925;52.522;5.732;2023-06-14T09:28:50;20.98;;;3.20;;
63782;SDS011;49925;52.522;5.732;2023-06-14T09:31:17;11.90;;;3.00;;
63782;SDS011;49925;52.522;5.732;2023-06-14T09:33:47;21.00;;;3.97;;
63782;SDS011;49925;52.522;5.732;2023-06-14T09:36:16;6.15;;;2.97;;
63782;SDS011;49925;52.522;5.732;2023-06-14T09:38:54;5.82;;;2.85;;
63782;SDS011;49925;52.522;5.732;2023-06-14T09:44:04;5.88;;;2.78;;
63782;SDS011;49925;52.522;5.732;2023-06-14T09:46:39;7.30;;;3.20;;
63782;SDS011;49925;52.522;5.732;2023-06-14T09:49:06;13.45;;;3.03;;
63782;SDS011;49925;52.522;5.732;2023-06-14T09:51:36;8.95;;;2.60;;
63782;SDS011;49925;52.522;5.732;2023-06-14T09:54:15;6.97;;;2.75;;
63782;SDS011;49925;52.522;5.732;2023-06-14T09:56:46;10.75;;;2.80;;
63782;SDS011;49925;52.522;5.732;2023-06-14T09:59:21;6.95;;;3.00;;
63782;SDS011;49925;52.522;5.732;2023-06-14T10:01:57;5.90;;;2.67;;
63782;SDS011;49925;52.522;5.732;2023-06-14T10:04:26;9.68;;;2.83;;
63782;SDS011;49925;52.522;5.732;2023-06-14T10:06:55;8.02;;;3.05;;
63782;SDS011;49925;52.522;5.732;2023-06-14T10:09:22;5.32;;;2.75;;
63782;SDS011;49925;52.522;5.732;2023-06-14T10:11:50;9.40;;;2.78;;
63782;SDS011;49925;52.522;5.732;2023-06-14T10:14:17;20.00;;;3.10;;
63782;SDS011;49925;52.522;5.732;2023-06-14T10:16:54;6.70;;;2.53;;
63782;SDS011;49925;52.522;5.732;2023-06-14T10:19:32;6.03;;;2.53;;
63782;SDS011;49925;52.522;5.732;2023-06-14T10:22:12;13.75;;;3.00;;
63782;SDS011;49925;52.522;5.732;2023-06-14T10:24:45;7.80;;;2.90;;
63782;SDS011;49925;52.522;5.732;2023-06-14T10:27:15;11.93;;;2.67;;
63782;SDS011;49925;52.522;5.732;2023-06-14T10:32:20;8.90;;;2.63;;
63782;SDS011;49925;52.522;5.732;2023-06-14T10:34:57;12.00;;;3.00;;
63782;SDS011;49925;52.522;5.732;2023-06-14T10:37:31;10.98;;;2.80;;
63782;SDS011;49925;52.522;5.732;2023-06-14T10:39:58;9.35;;;2.70;;
63782;SDS011;49925;52.522;5.732;2023-06-14T10:42:32;16.15;;;2.70;;
63782;SDS011;49925;52.522;5.732;2023-06-14T10:45:00;9.70;;;2.42;;
63782;SDS011;49925;52.522;5.732;2023-06-14T10:52:29;6.63;;;2.72;;
63782;SDS011;49925;52.522;5.732;2023-06-14T10:55:02;9.75;;;2.60;;
63782;SDS011;49925;52.522;5.732;2023-06-14T10:57:36;9.40;;;2.80;;
63782;SDS011;49925;52.522;5.732;2023-06-14T11:00:18;10.82;;;3.28;;
63782;SDS011;49925;52.522;5.732;2023-06-14T11:11:10;29.83;;;3.08;;
63782;SDS011;49925;52.522;5.732;2023-06-14T11:13:41;15.13;;;3.00;;
63782;SDS011;49925;52.522;5.732;2023-06-14T11:16:14;24.35;;;2.90;;
63782;SDS011;49925;52.522;5.732;2023-06-14T11:18:43;8.27;;;2.38;;
63782;SDS011;49925;52.522;5.732;2023-06-14T11:21:15;7.05;;;2.80;;
63782;SDS011;49925;52.522;5.732;2023-06-14T11:23:50;8.63;;;2.45;;
63782;SDS011;49925;52.522;5.732;2023-06-14T11:26:25;6.60;;;2.60;;
63782;SDS011;49925;52.522;5.732;2023-06-14T11:28:57;6.18;;;2.55;;
63782;SDS011;49925;52.522;5.732;2023-06-14T11:31:26;7.47;;;2.80;;
63782;SDS011;49925;52.522;5.732;2023-06-14T11:33:58;10.63;;;2.75;;
63782;SDS011;49925;52.522;5.732;2023-06-14T11:36:30;24.17;;;3.22;;
63782;SDS011;49925;52.522;5.732;2023-06-14T11:38:59;13.90;;;2.80;;
63782;SDS011;49925;52.522;5.732;2023-06-14T11:41:31;10.82;;;2.50;;
63782;SDS011;49925;52.522;5.732;2023-06-14T11:44:09;5.40;;;2.50;;
63782;SDS011;49925;52.522;5.732;2023-06-14T11:46:38;10.20;;;2.90;;
63782;SDS011;49925;52.522;5.732;2023-06-14T11:49:06;7.30;;;2.78;;
63782;SDS011;49925;52.522;5.732;2023-06-14T11:51:34;12.30;;;3.17;;
63782;SDS011;49925;52.522;5.732;2023-06-14T11:54:02;10.93;;;2.92;;
63782;SDS011;49925;52.522;5.732;2023-06-14T11:56:30;6.35;;;2.47;;
63782;SDS011;49925;52.522;5.732;2023-06-14T11:58:58;5.65;;;2.53;;
63782;SDS011;49925;52.522;5.732;2023-06-14T12:01:26;7.03;;;2.53;;
63782;SDS011;49925;52.522;5.732;2023-06-14T12:03:55;7.05;;;2.60;;
63782;SDS011;49925;52.522;5.732;2023-06-14T12:06:29;6.85;;;2.90;;
63782;SDS011;49925;52.522;5.732;2023-06-14T12:09:03;6.30;;;3.03;;
63782;SDS011;49925;52.522;5.732;2023-06-14T12:11:34;6.63;;;2.42;;
63782;SDS011;49925;52.522;5.732;2023-06-14T12:14:03;5.80;;;2.67;;
63782;SDS011;49925;52.522;5.732;2023-06-14T12:16:32;12.52;;;2.95;;
63782;SDS011;49925;52.522;5.732;2023-06-14T12:19:14;9.68;;;2.72;;
63782;SDS011;49925;52.522;5.732;2023-06-14T12:21:43;9.35;;;2.80;;
63782;SDS011;49925;52.522;5.732;2023-06-14T12:24:15;9.30;;;3.03;;
63782;SDS011;49925;52.522;5.732;2023-06-14T12:26:43;10.90;;;2.63;;
63782;SDS011;49925;52.522;5.732;2023-06-14T12:29:10;9.75;;;2.90;;
63782;SDS011;49925;52.522;5.732;2023-06-14T12:31:39;9.93;;;2.75;;
63782;SDS011;49925;52.522;5.732;2023-06-14T12:34:08;6.55;;;2.80;;
63782;SDS011;49925;52.522;5.732;2023-06-14T12:36:35;8.23;;;2.60;;
63782;SDS011;49925;52.522;5.732;2023-06-14T12:39:08;15.30;;;2.80;;
63782;SDS011;49925;52.522;5.732;2023-06-14T12:41:35;8.75;;;2.70;;
63782;SDS011;49925;52.522;5.732;2023-06-14T12:44:08;7.50;;;2.55;;
63782;SDS011;49925;52.522;5.732;2023-06-14T12:46:36;10.02;;;2.70;;
63782;SDS011;49925;52.522;5.732;2023-06-14T12:49:07;12.70;;;2.88;;
63782;SDS011;49925;52.522;5.732;2023-06-14T12:51:35;12.45;;;2.72;;
63782;SDS011;49925;52.522;5.732;2023-06-14T12:54:02;12.50;;;3.17;;
63782;SDS011;49925;52.522;5.732;2023-06-14T12:56:30;11.77;;;3.10;;
63782;SDS011;49925;52.522;5.732;2023-06-14T12:58:57;15.02;;;2.88;;
63782;SDS011;49925;52.522;5.732;2023-06-14T13:01:25;6.55;;;2.63;;
63782;SDS011;49925;52.522;5.732;2023-06-14T13:03:52;11.00;;;3.03;;
63782;SDS011;49925;52.522;5.732;2023-06-14T13:06:20;10.77;;;2.65;;
63782;SDS011;49925;52.522;5.732;2023-06-14T13:08:49;4.63;;;2.55;;
63782;SDS011;49925;52.522;5.732;2023-06-14T13:11:16;9.57;;;2.63;;
63782;SDS011;49925;52.522;5.732;2023-06-14T13:13:43;8.85;;;2.70;;
63782;SDS011;49925;52.522;5.732;2023-06-14T13:16:11;14.35;;;2.90;;
63782;SDS011;49925;52.522;5.732;2023-06-14T13:18:40;8.35;;;2.80;;
63782;SDS011;49925;52.522;5.732;2023-06-14T13:21:08;73.38;;;4.88;;
63782;SDS011;49925;52.522;5.732;2023-06-14T13:23:35;15.73;;;2.70;;
63782;SDS011;49925;52.522;5.732;2023-06-14T13:26:02;6.68;;;2.47;;
63782;SDS011;49925;52.522;5.732;2023-06-14T13:28:29;4.75;;;2.30;;
63782;SDS011;49925;52.522;5.732;2023-06-14T13:30:58;5.78;;;2.60;;
63782;SDS011;49925;52.522;5.732;2023-06-14T13:33:25;10.68;;;2.65;;
63782;SDS011;49925;52.522;5.732;2023-06-14T13:35:52;7.28;;;2.60;;
63782;SDS011;49925;52.522;5.732;2023-06-14T13:38:19;8.63;;;2.47;;
63782;SDS011;49925;52.522;5.732;2023-06-14T13:40:46;8.63;;;2.60;;
63782;SDS011;49925;52.522;5.732;2023-06-14T13:43:14;6.38;;;2.50;;
63782;SDS011;49925;52.522;5.732;2023-06-14T13:45:41;16.23;;;3.08;;
63782;SDS011;49925;52.522;5.732;2023-06-14T13:48:08;7.65;;;2.92;;
63782;SDS011;49925;52.522;5.732;2023-06-14T13:50:35;9.70;;;2.90;;
63782;SDS011;49925;52.522;5.732;2023-06-14T13:53:02;4.63;;;2.42;;
63782;SDS011;49925;52.522;5.732;2023-06-14T13:55:29;14.43;;;2.60;;
63782;SDS011;49925;52.522;5.732;2023-06-14T13:57:57;10.77;;;2.70;;
63782;SDS011;49925;52.522;5.732;2023-06-14T14:00:24;9.50;;;2.80;;
63782;SDS011;49925;52.522;5.732;2023-06-14T14:02:51;12.27;;;2.70;;
63782;SDS011;49925;52.522;5.732;2023-06-14T14:05:18;4.65;;;2.88;;
63782;SDS011;49925;52.522;5.732;2023-06-14T14:07:47;12.25;;;3.03;;
63782;SDS011;49925;52.522;5.732;2023-06-14T14:10:14;4.53;;;2.55;;
63782;SDS011;49925;52.522;5.732;2023-06-14T14:12:42;4.13;;;2.60;;
63782;SDS011;49925;52.522;5.732;2023-06-14T14:15:09;5.85;;;2.60;;
63782;SDS011;49925;52.522;5.732;2023-06-14T14:17:39;9.27;;;2.55;;
63782;SDS011;49925;52.522;5.732;2023-06-14T14:20:07;8.23;;;2.85;;
63782;SDS011;49925;52.522;5.732;2023-06-14T14:22:36;10.18;;;2.90;;
63782;SDS011;49925;52.522;5.732;2023-06-14T14:25:03;14.85;;;2.90;;
63782;SDS011;49925;52.522;5.732;2023-06-14T14:27:31;9.25;;;2.67;;
63782;SDS011;49925;52.522;5.732;2023-06-14T14:29:58;7.65;;;2.90;;
63782;SDS011;49925;52.522;5.732;2023-06-14T14:32:25;8.18;;;2.63;;
63782;SDS011;49925;52.522;5.732;2023-06-14T14:34:52;6.80;;;2.40;;
63782;SDS011;49925;52.522;5.732;2023-06-14T14:37:19;14.77;;;2.58;;
63782;SDS011;49925;52.522;5.732;2023-06-14T14:39:47;10.35;;;2.70;;
63782;SDS011;49925;52.522;5.732;2023-06-14T14:42:14;6.72;;;2.42;;
63782;SDS011;49925;52.522;5.732;2023-06-14T14:44:41;8.65;;;2.67;;
63782;SDS011;49925;52.522;5.732;2023-06-14T14:47:08;9.75;;;2.75;;
63782;SDS011;49925;52.522;5.732;2023-06-14T14:49:36;4.53;;;2.70;;
63782;SDS011;49925;52.522;5.732;2023-06-14T14:52:03;7.32;;;2.65;;
63782;SDS011;49925;52.522;5.732;2023-06-14T14:54:48;5.70;;;2.80;;
63782;SDS011;49925;52.522;5.732;2023-06-14T14:57:16;11.43;;;2.40;;
63782;SDS011;49925;52.522;5.732;2023-06-14T14:59:43;4.57;;;2.70;;
63782;SDS011;49925;52.522;5.732;2023-06-14T15:02:11;8.10;;;2.40;;
63782;SDS011;49925;52.522;5.732;2023-06-14T15:04:38;6.68;;;2.80;;
63782;SDS011;49925;52.522;5.732;2023-06-14T15:07:05;6.13;;;2.95;;
63782;SDS011;49925;52.522;5.732;2023-06-14T15:09:33;10.20;;;3.10;;
63782;SDS011;49925;52.522;5.732;2023-06-14T15:12:00;9.48;;;3.00;;
63782;SDS011;49925;52.522;5.732;2023-06-14T15:14:27;12.05;;;2.75;;